Etusivu
METAR-TAF:

METAR-TAF

Lentoasemat :

Nain, Newfoundland ja Labrador, Kanada

Leveyspiiri: 56-33N, Pituuspiiri: 061-41W, korkeus merenpinnasta: 6 m

Tämänhetkinen sää

Tämä raportti tehtiin 30 minuuttia sitten, kello 09.00 UTC
Tuuli 2 kn pohjoisen/luoteesta
Lämpötila 0°C
Kosteus 100%
Ilmanpaine 1012 hPa
Näkyvyys: 24.1 km
Muutamia pilviä 500 ft:n korkeudessa
Pilvistä 3100 ft:n korkeudessa

METAR: CYDP 290900Z 34002KT 15SM FEW005 OVC031 00/00 A2988 RMK SF1SC8 TR SF SLP121

Aika: 06:30 (09:30 UTC)

Sääennuste

Tämä raportti tehtiin 14 tuntia ja 0 minuuttia sitten, kello 19.30 UTC
Ennuste voimassa 28. päivästä klo 20 UTC - 28. päivään klo 23 UTC
Tuuli 8 kn idästä
Näkyvyys: 10 km
Muutamia pilviä 1500 ft:n korkeudessa
Hajonneita pilviä 3000 ft:n korkeudessa

TAF: CYDP 281930Z 2820/2823 09008KT P6SM FEW015 BKN030 RMK NXT FCST WILL BE ISSUED AT 290945Z

Säähavainnot ja -ennusteet yli 4000 lentoasemalta (METAR- ja TAF-raportit).

Käytössä olevat sääasemat on merkitty karttaan keltaisilla ja punaisilla pisteillä.

Aseta hiiri pisteen päälle nähdäksesi sääaseman nimen.

Klikkaa sitten nähdäksesi säähavainnot ja -ennusteet.

Kartan vaihtaminen: klikkaa mustalla rastilla varustettuja vihreitä pisteitä, niin voit zoomata sisään; viivalla varustettua vihreää pistettä, niin voit zoomata ulos tai vihreitä nuolia, niin pääset viereisille kartoille.


METAR-TAF: